Time;durP1;ratioP1;P1;durP2;ratioP2;P2;SDS_P1;SDS_P2;PMS_P1;PMS_P2;Temp;Humidity;BMP_temperature;BMP_pressure;BME280_temperature;BME280_humidity;BME280_pressure;Samples;Min_cycle;Max_cycle;Signal;HPM_P1;HPM_P2
2022/05/24 00:01:26;;;;;;;28.73;20.13;;;13.90;99.90;;;;;;5116160;28;20168;-68
2022/05/24 00:03:52;;;;;;;29.33;20.10;;;13.80;99.90;;;;;;5097964;28;20237;-68
2022/05/24 00:06:18;;;;;;;26.20;19.50;;;13.80;99.90;;;;;;5116600;28;20191;-68
2022/05/24 00:08:44;;;;;;;26.60;19.30;;;13.80;99.90;;;;;;5097623;28;20606;-69
2022/05/24 00:11:11;;;;;;;27.48;20.38;;;13.80;99.90;;;;;;5116257;28;20168;-68
2022/05/24 00:13:36;;;;;;;28.25;19.55;;;13.80;99.90;;;;;;5115398;28;20184;-69
2022/05/24 00:16:03;;;;;;;25.58;19.35;;;13.80;99.90;;;;;;5097897;28;20589;-68
2022/05/24 00:18:30;;;;;;;28.17;19.70;;;13.80;99.90;;;;;;5116418;28;20284;-69
2022/05/24 00:21:01;;;;;;;27.17;18.75;;;13.70;99.90;;;;;;5118297;28;20165;-69
2022/05/24 00:23:29;;;;;;;23.90;17.95;;;13.70;99.90;;;;;;5117727;28;20301;-69
2022/05/24 00:26:02;;;;;;;24.58;18.25;;;13.70;99.90;;;;;;5115841;28;20643;-71
2022/05/24 00:28:30;;;;;;;26.98;18.70;;;13.80;99.90;;;;;;5116871;28;20250;-69
2022/05/24 00:30:57;;;;;;;25.75;18.35;;;13.80;99.90;;;;;;5116041;28;20172;-69
2022/05/24 00:33:22;;;;;;;25.55;18.77;;;13.80;99.90;;;;;;5115740;28;20192;-69
2022/05/24 00:35:49;;;;;;;29.38;20.73;;;13.90;99.90;;;;;;5116114;28;20183;-70
2022/05/24 00:38:23;;;;;;;30.92;21.08;;;14.00;99.90;;;;;;5116010;28;20200;-70
2022/05/24 00:41:01;;;;;;;31.40;21.20;;;14.00;99.90;;;;;;5115825;28;20246;-70
2022/05/24 00:43:33;;;;;;;30.38;21.27;;;13.90;99.90;;;;;;5114507;28;20270;-70
2022/05/24 00:46:09;;;;;;;33.40;21.75;;;13.90;99.90;;;;;;5117059;28;20167;-70
2022/05/24 00:48:39;;;;;;;34.53;22.08;;;14.00;99.90;;;;;;5116864;28;20576;-70
2022/05/24 00:51:08;;;;;;;34.47;22.85;;;14.00;99.90;;;;;;5116622;28;20168;-70
2022/05/24 00:53:42;;;;;;;33.63;21.75;;;14.00;99.90;;;;;;5115723;28;20172;-69
2022/05/24 00:56:12;;;;;;;32.65;21.13;;;14.00;99.90;;;;;;5116053;28;20248;-70
2022/05/24 00:58:53;;;;;;;33.85;20.33;;;14.10;99.90;;;;;;5115540;28;20192;-69
2022/05/24 01:01:28;;;;;;;31.60;21.65;;;14.10;99.90;;;;;;5096880;28;20655;-70
2022/05/24 01:03:54;;;;;;;31.13;20.67;;;14.10;99.90;;;;;;5115447;28;20152;-70
2022/05/24 01:06:21;;;;;;;25.38;17.77;;;14.10;99.90;;;;;;5115068;28;20221;-70
2022/05/24 01:08:47;;;;;;;26.05;17.80;;;14.10;99.90;;;;;;5096626;28;20208;-70
2022/05/24 01:11:14;;;;;;;25.05;17.27;;;14.10;99.90;;;;;;5115642;28;20172;-70
2022/05/24 01:13:43;;;;;;;23.83;15.88;;;14.00;99.90;;;;;;5096579;28;20656;-70
2022/05/24 01:16:09;;;;;;;19.40;14.30;;;14.10;99.90;;;;;;5096393;28;20176;-70
2022/05/24 01:18:35;;;;;;;19.10;14.00;;;14.10;99.90;;;;;;5096362;28;20557;-70
2022/05/24 01:21:08;;;;;;;17.98;13.40;;;14.10;99.90;;;;;;5115047;28;20165;-69
2022/05/24 01:23:54;;;;;;;20.60;13.32;;;14.00;99.90;;;;;;5114805;28;20153;-69
2022/05/24 01:26:41;;;;;;;18.63;13.85;;;14.00;99.90;;;;;;5114743;28;20185;-70
2022/05/24 01:29:09;;;;;;;18.05;12.55;;;14.00;99.90;;;;;;5096365;28;20252;-70
2022/05/24 01:37:07;;;;;;;18.25;13.15;;;14.00;99.90;;;;;;5115210;28;20666;-70
2022/05/24 01:39:34;;;;;;;22.88;13.52;;;14.00;99.90;;;;;;5114516;28;20197;-70
2022/05/24 01:42:00;;;;;;;15.30;12.30;;;14.00;99.90;;;;;;5114851;28;20177;-70
2022/05/24 01:44:42;;;;;;;23.48;13.77;;;14.00;99.90;;;;;;5095996;28;20183;-70
2022/05/24 01:47:08;;;;;;;19.52;13.20;;;13.90;99.90;;;;;;5114656;28;20160;-70
2022/05/24 01:49:38;;;;;;;18.90;13.60;;;13.90;99.90;;;;;;5114258;28;20193;-70
2022/05/24 01:52:11;;;;;;;22.55;13.90;;;13.90;99.90;;;;;;5114625;28;20188;-69
2022/05/24 01:54:45;;;;;;;21.67;13.25;;;13.80;99.90;;;;;;5114438;28;20164;-70
2022/05/24 01:57:36;;;;;;;21.95;14.15;;;13.80;99.90;;;;;;5096224;28;20655;-69
2022/05/24 02:00:05;;;;;;;20.35;14.27;;;13.90;99.90;;;;;;5113560;28;20189;-70
2022/05/24 02:02:30;;;;;;;19.90;14.02;;;13.90;99.90;;;;;;5114167;28;20168;-70
2022/05/24 02:04:56;;;;;;;20.75;13.90;;;14.00;99.90;;;;;;5114382;28;20659;-69
2022/05/24 02:07:25;;;;;;;18.83;13.75;;;14.00;99.90;;;;;;5113868;28;20172;-70
2022/05/24 02:09:54;;;;;;;19.08;13.43;;;14.00;99.90;;;;;;5114613;28;20179;-70
2022/05/24 02:12:32;;;;;;;18.48;13.85;;;14.10;99.90;;;;;;5114443;28;20233;-70
2022/05/24 02:15:20;;;;;;;20.88;14.77;;;14.10;99.90;;;;;;5095526;28;20188;-70
2022/05/24 02:17:56;;;;;;;18.45;13.43;;;14.00;99.90;;;;;;5113951;28;20277;-70
2022/05/24 02:20:29;;;;;;;18.13;13.93;;;14.00;99.90;;;;;;5114107;28;20160;-70
2022/05/24 02:22:55;;;;;;;20.50;14.90;;;14.00;99.90;;;;;;5114372;28;20188;-70
2022/05/24 02:25:21;;;;;;;18.25;14.00;;;14.00;99.90;;;;;;5113897;28;20556;-70
2022/05/24 02:27:47;;;;;;;21.23;14.73;;;14.00;99.90;;;;;;5095737;28;20203;-70
2022/05/24 02:30:18;;;;;;;23.70;15.50;;;14.00;99.90;;;;;;5113888;28;20168;-70
2022/05/24 02:32:45;;;;;;;24.23;15.02;;;14.00;99.90;;;;;;5114341;28;20203;-72
2022/05/24 02:35:11;;;;;;;21.00;15.02;;;14.00;99.90;;;;;;5114424;28;20165;-71
2022/05/24 02:37:37;;;;;;;21.08;14.98;;;14.10;99.90;;;;;;5117914;28;20173;-70
2022/05/24 02:42:51;;;;;;;19.17;14.13;;;14.00;99.90;;;;;;5118535;28;20164;-70
2022/05/24 02:45:17;;;;;;;20.90;15.23;;;14.10;99.90;;;;;;5099167;28;20246;-70
2022/05/24 02:47:43;;;;;;;21.52;15.68;;;14.10;99.90;;;;;;5117888;28;20652;-70
2022/05/24 02:50:11;;;;;;;23.08;15.25;;;14.10;99.90;;;;;;5117625;28;20288;-71
2022/05/24 02:52:40;;;;;;;22.80;15.50;;;14.10;99.90;;;;;;5117632;28;20193;-70
2022/05/24 02:55:08;;;;;;;22.95;15.68;;;14.10;99.90;;;;;;5117829;28;20539;-70
2022/05/24 02:57:34;;;;;;;20.23;14.65;;;14.10;99.90;;;;;;5117280;28;20175;-70
2022/05/24 03:00:00;;;;;;;23.33;15.27;;;14.10;99.90;;;;;;5098900;28;20172;-70
2022/05/24 03:02:26;;;;;;;25.17;16.35;;;14.10;99.90;;;;;;5118224;28;20180;-70
2022/05/24 03:04:51;;;;;;;24.42;15.85;;;14.10;99.90;;;;;;5117719;28;20176;-70
2022/05/24 03:10:01;;;;;;;24.10;17.33;;;14.10;99.90;;;;;;5117697;28;20218;-70
2022/05/24 03:15:11;;;;;;;24.67;17.15;;;14.10;99.90;;;;;;5116821;28;20671;-70
2022/05/24 03:17:37;;;;;;;25.08;18.73;;;14.10;99.90;;;;;;5117020;28;20164;-70
2022/05/24 03:20:04;;;;;;;27.92;18.67;;;14.10;99.90;;;;;;5117065;28;20179;-70
2022/05/24 03:22:30;;;;;;;27.75;18.60;;;14.10;99.90;;;;;;5098185;28;20572;-70
2022/05/24 03:24:55;;;;;;;26.13;19.75;;;14.10;99.90;;;;;;5098452;28;20263;-70
2022/05/24 03:27:21;;;;;;;26.65;18.73;;;14.10;99.90;;;;;;5098332;28;20234;-70
2022/05/24 03:29:48;;;;;;;28.52;19.05;;;14.10;99.90;;;;;;5098131;28;20730;-70
2022/05/24 03:32:16;;;;;;;29.92;20.45;;;14.10;99.90;;;;;;5116703;28;20192;-70
2022/05/24 03:34:42;;;;;;;26.52;19.27;;;14.10;99.90;;;;;;5116977;28;20176;-70
2022/05/24 03:37:08;;;;;;;29.30;19.88;;;14.10;99.90;;;;;;5098215;28;20320;-70
2022/05/24 03:39:34;;;;;;;25.77;18.30;;;14.10;99.90;;;;;;5117117;28;20231;-73
2022/05/24 03:42:01;;;;;;;28.38;18.08;;;14.10;99.90;;;;;;5116704;28;20168;-73
2022/05/24 03:44:27;;;;;;;24.75;17.48;;;14.00;99.90;;;;;;5116616;28;20230;-72
2022/05/24 03:46:53;;;;;;;26.52;17.23;;;14.00;99.90;;;;;;5116591;28;20290;-72
2022/05/24 03:49:20;;;;;;;21.83;16.13;;;14.00;99.90;;;;;;5097796;28;20200;-72
2022/05/24 03:51:46;;;;;;;20.90;15.50;;;14.00;99.90;;;;;;5097954;28;20617;-73
2022/05/24 03:54:15;;;;;;;22.95;16.13;;;14.00;99.90;;;;;;5098367;28;20184;-73
2022/05/24 03:59:26;;;;;;;18.88;14.23;;;14.00;99.90;;;;;;5117653;28;20192;-72
2022/05/24 04:01:52;;;;;;;20.48;14.68;;;14.00;99.90;;;;;;5116972;28;20172;-72
2022/05/24 04:04:18;;;;;;;17.77;13.05;;;14.00;99.90;;;;;;5116238;28;20543;-72
2022/05/24 04:06:43;;;;;;;19.67;12.82;;;14.00;99.90;;;;;;5116026;28;20319;-72
2022/05/24 04:09:09;;;;;;;19.42;12.82;;;14.00;99.90;;;;;;5116375;28;20691;-71
2022/05/24 04:11:35;;;;;;;21.95;12.68;;;14.00;99.90;;;;;;5118301;28;20218;-70
2022/05/24 04:14:01;;;;;;;18.45;11.85;;;14.00;99.90;;;;;;5100541;28;20188;-70
2022/05/24 04:16:27;;;;;;;17.35;11.63;;;14.00;99.90;;;;;;5116275;28;20164;-71
2022/05/24 04:18:53;;;;;;;12.30;8.45;;;14.00;99.90;;;;;;5117135;28;20572;-71
2022/05/24 04:21:19;;;;;;;12.55;7.35;;;13.90;99.90;;;;;;5097322;28;20172;-71
2022/05/24 04:23:45;;;;;;;11.35;6.63;;;13.90;99.90;;;;;;5115739;28;20165;-70
2022/05/24 04:26:10;;;;;;;11.48;6.43;;;13.90;99.90;;;;;;5097188;28;20180;-69
2022/05/24 04:28:36;;;;;;;10.73;5.90;;;13.90;99.90;;;;;;5115233;28;20215;-69
2022/05/24 04:31:04;;;;;;;9.90;5.97;;;13.80;99.90;;;;;;5096786;28;20183;-69
2022/05/24 04:33:29;;;;;;;9.23;5.40;;;13.80;99.90;;;;;;5096765;28;20211;-69
2022/05/24 04:35:56;;;;;;;9.48;5.18;;;13.80;99.90;;;;;;5115017;28;20172;-69
2022/05/24 04:38:22;;;;;;;11.45;5.75;;;13.80;99.90;;;;;;5114986;28;20193;-69
2022/05/24 04:43:33;;;;;;;10.48;5.35;;;13.70;99.90;;;;;;5115622;28;20199;-69
2022/05/24 04:45:58;;;;;;;8.05;5.53;;;13.70;99.90;;;;;;5114789;28;20176;-69
2022/05/24 04:48:25;;;;;;;14.27;7.25;;;13.70;99.90;;;;;;5096498;28;20257;-69
2022/05/24 04:50:53;;;;;;;16.05;8.15;;;13.70;99.90;;;;;;5114807;28;20267;-69
2022/05/24 04:53:18;;;;;;;15.63;7.95;;;13.70;99.90;;;;;;5115042;28;20627;-69
2022/05/24 04:55:44;;;;;;;12.27;7.93;;;13.70;99.90;;;;;;5096388;28;20212;-68
2022/05/24 04:58:11;;;;;;;11.98;7.50;;;13.60;99.90;;;;;;5096244;28;20204;-68
2022/05/24 05:00:38;;;;;;;16.17;7.60;;;13.70;99.90;;;;;;5114247;28;20169;-69
2022/05/24 05:03:09;;;;;;;12.77;7.82;;;13.70;99.90;;;;;;5114886;28;20176;-69
2022/05/24 05:05:35;;;;;;;11.77;7.68;;;13.60;99.90;;;;;;5114549;28;20191;-69
2022/05/24 05:08:00;;;;;;;11.27;7.45;;;13.60;99.90;;;;;;5114355;28;20208;-69
2022/05/24 05:10:26;;;;;;;9.98;6.88;;;13.60;99.90;;;;;;5096153;28;20552;-69
2022/05/24 05:12:52;;;;;;;12.20;7.10;;;13.60;99.90;;;;;;5114648;28;20208;-69
2022/05/24 05:15:18;;;;;;;10.35;6.50;;;13.60;99.90;;;;;;5095879;28;20196;-69
2022/05/24 05:17:43;;;;;;;10.90;5.93;;;13.50;99.90;;;;;;5096076;28;20197;-69
2022/05/24 05:20:10;;;;;;;14.23;5.93;;;13.50;99.90;;;;;;5114581;28;20167;-69
2022/05/24 05:22:37;;;;;;;7.30;5.40;;;13.50;99.90;;;;;;5114500;28;20169;-69
2022/05/24 05:25:03;;;;;;;7.97;5.07;;;13.40;99.90;;;;;;5095927;28;20177;-69
2022/05/24 05:27:29;;;;;;;11.25;5.35;;;13.30;99.90;;;;;;5114703;28;20168;-69
2022/05/24 05:32:39;;;;;;;9.07;5.47;;;13.20;99.90;;;;;;5114433;28;20201;-69
2022/05/24 05:35:07;;;;;;;9.40;5.97;;;13.10;99.90;;;;;;5114874;28;20602;-69
2022/05/24 05:37:33;;;;;;;10.75;5.88;;;13.10;99.90;;;;;;5095772;28;20172;-69
2022/05/24 05:40:02;;;;;;;12.83;6.17;;;13.00;99.90;;;;;;5114187;28;20173;-69
2022/05/24 05:42:27;;;;;;;9.77;5.40;;;12.90;99.90;;;;;;5096001;28;20183;-69
2022/05/24 05:44:53;;;;;;;9.23;5.55;;;12.80;99.90;;;;;;5095758;28;20184;-69
2022/05/24 05:47:20;;;;;;;13.35;5.68;;;12.60;99.90;;;;;;5095928;28;20203;-69
2022/05/24 05:49:46;;;;;;;11.30;5.63;;;12.50;99.90;;;;;;5114256;28;20197;-69
2022/05/24 05:52:12;;;;;;;12.50;5.80;;;12.40;99.90;;;;;;5114363;28;20204;-69
2022/05/24 05:54:38;;;;;;;15.60;6.33;;;12.40;99.90;;;;;;5115289;28;20180;-69
2022/05/24 05:57:06;;;;;;;8.47;5.70;;;12.20;99.90;;;;;;5115151;28;20168;-68
2022/05/24 05:59:33;;;;;;;10.37;5.83;;;12.20;99.90;;;;;;5095987;28;20192;-68
2022/05/24 06:01:58;;;;;;;11.50;6.23;;;12.10;99.90;;;;;;5113981;28;20180;-68
2022/05/24 06:04:25;;;;;;;10.47;7.13;;;12.00;99.90;;;;;;5096041;28;20187;-68
2022/05/24 06:06:52;;;;;;;10.07;6.43;;;11.90;99.90;;;;;;5114655;28;20577;-68
2022/05/24 06:09:18;;;;;;;10.97;6.50;;;11.90;99.90;;;;;;5095738;28;20211;-68
2022/05/24 06:11:44;;;;;;;13.00;7.00;;;11.80;99.90;;;;;;5116402;28;20204;-68
2022/05/24 06:14:10;;;;;;;18.00;6.80;;;11.70;99.90;;;;;;5118338;28;20199;-68
2022/05/24 06:16:37;;;;;;;15.80;7.13;;;11.70;99.90;;;;;;5099623;28;20176;-67
2022/05/24 06:19:04;;;;;;;11.83;6.40;;;11.60;99.90;;;;;;5099720;28;20204;-68
2022/05/24 06:21:33;;;;;;;16.33;8.07;;;11.60;99.90;;;;;;5099920;28;20201;-67
2022/05/24 06:24:06;;;;;;;12.73;6.77;;;11.60;99.90;;;;;;5118532;28;20169;-68
2022/05/24 06:26:33;;;;;;;12.90;7.30;;;11.60;99.90;;;;;;5118047;28;20160;-68
2022/05/24 06:29:01;;;;;;;15.37;7.73;;;11.50;99.90;;;;;;5099782;28;20200;-68
2022/05/24 06:31:27;;;;;;;14.80;7.07;;;11.40;99.90;;;;;;5099516;28;20292;-67
2022/05/24 06:33:53;;;;;;;12.90;7.37;;;11.50;99.90;;;;;;5118477;28;20184;-68
2022/05/24 06:36:19;;;;;;;15.87;8.00;;;11.50;99.90;;;;;;5119005;28;20547;-68
2022/05/24 06:38:45;;;;;;;13.93;7.90;;;11.40;99.90;;;;;;5119823;28;20204;-68
2022/05/24 06:41:11;;;;;;;15.67;8.13;;;11.40;99.90;;;;;;5101182;28;20176;-67
2022/05/24 06:43:36;;;;;;;15.07;8.40;;;11.40;99.90;;;;;;5100420;28;20186;-68
2022/05/24 06:46:07;;;;;;;14.63;8.90;;;11.40;99.90;;;;;;5118169;28;20694;-68
2022/05/24 06:48:38;;;;;;;13.73;8.80;;;11.40;99.90;;;;;;5117874;28;20195;-68
2022/05/24 06:51:13;;;;;;;14.30;8.50;;;11.40;99.90;;;;;;5117760;28;20165;-68
2022/05/24 06:53:39;;;;;;;14.90;8.83;;;11.40;99.90;;;;;;5117745;28;20644;-68
2022/05/24 06:56:06;;;;;;;16.37;8.47;;;11.40;99.90;;;;;;5117511;28;20169;-67
2022/05/24 06:58:33;;;;;;;19.40;8.73;;;11.30;99.90;;;;;;5117402;28;20271;-68
2022/05/24 07:03:45;;;;;;;21.00;8.37;;;11.20;99.90;;;;;;5117551;28;20168;-68
2022/05/24 07:06:12;;;;;;;14.43;8.13;;;11.20;99.90;;;;;;5118079;28;20177;-68
2022/05/24 07:08:39;;;;;;;11.90;8.67;;;11.20;99.90;;;;;;5118509;28;20541;-67
2022/05/24 07:11:05;;;;;;;14.73;8.50;;;11.30;99.90;;;;;;5117697;28;20176;-68
2022/05/24 07:13:31;;;;;;;10.67;7.57;;;11.40;99.90;;;;;;5117489;28;20676;-68
2022/05/24 07:15:56;;;;;;;13.73;7.63;;;11.40;99.90;;;;;;5116942;28;20176;-68
2022/05/24 07:18:22;;;;;;;17.63;8.30;;;11.40;99.90;;;;;;5116880;28;20207;-68
2022/05/24 07:20:48;;;;;;;11.67;7.50;;;11.30;99.90;;;;;;5116810;28;20173;-68
2022/05/24 07:23:17;;;;;;;11.27;7.23;;;11.30;99.90;;;;;;5116900;28;20191;-68
2022/05/24 07:25:44;;;;;;;11.07;7.03;;;11.40;99.90;;;;;;5098395;28;20184;-68
2022/05/24 07:28:12;;;;;;;12.47;7.33;;;11.40;99.90;;;;;;5116587;28;20200;-68
2022/05/24 07:30:38;;;;;;;9.37;6.47;;;11.40;99.90;;;;;;5116637;28;20200;-68
2022/05/24 07:33:05;;;;;;;8.60;6.20;;;11.30;99.90;;;;;;5116440;28;20200;-68
2022/05/24 07:35:32;;;;;;;11.77;6.43;;;11.40;99.90;;;;;;5116467;28;20581;-69
2022/05/24 07:37:57;;;;;;;11.60;6.57;;;11.40;99.90;;;;;;5116419;28;20555;-69
2022/05/24 07:45:58;;;;;;;10.33;6.13;;;11.60;99.90;;;;;;5116635;28;20171;-68
2022/05/24 07:48:24;;;;;;;10.83;6.00;;;11.70;99.90;;;;;;5116501;28;20235;-68
2022/05/24 07:50:51;;;;;;;11.77;5.53;;;11.60;99.90;;;;;;5116439;28;20184;-68
2022/05/24 07:53:17;;;;;;;6.47;5.40;;;11.50;99.90;;;;;;5116086;28;20668;-68
2022/05/24 07:55:44;;;;;;;9.37;5.50;;;11.40;99.90;;;;;;5116409;28;20233;-68
2022/05/24 07:58:11;;;;;;;8.63;5.57;;;11.50;99.90;;;;;;5115901;28;20204;-68
2022/05/24 08:00:38;;;;;;;7.97;5.77;;;11.50;99.90;;;;;;5097321;28;20180;-68
2022/05/24 08:03:06;;;;;;;8.83;6.90;;;11.50;99.90;;;;;;5116108;28;20172;-68
2022/05/24 08:05:33;;;;;;;9.13;6.27;;;11.70;99.90;;;;;;5116101;28;20177;-68
2022/05/24 08:08:00;;;;;;;15.07;7.07;;;11.80;99.90;;;;;;5115644;28;20196;-68
2022/05/24 08:10:28;;;;;;;8.27;5.63;;;12.00;99.90;;;;;;5115748;28;20667;-68
2022/05/24 08:12:54;;;;;;;8.07;5.30;;;12.00;99.90;;;;;;5097567;28;20311;-68
2022/05/24 08:15:20;;;;;;;6.10;4.47;;;12.00;99.90;;;;;;5115952;28;20192;-67
2022/05/24 08:17:54;;;;;;;5.57;4.30;;;12.10;99.90;;;;;;5116095;28;20324;-67
2022/05/24 08:20:22;;;;;;;7.90;4.30;;;11.90;99.90;;;;;;5116113;28;20192;-67
2022/05/24 08:22:52;;;;;;;6.97;4.67;;;11.80;99.90;;;;;;5097182;28;20245;-68
2022/05/24 08:25:19;;;;;;;10.57;4.87;;;11.80;99.90;;;;;;5115777;28;20176;-70
2022/05/24 08:27:45;;;;;;;7.67;4.80;;;11.90;99.90;;;;;;5115900;28;20184;-69
2022/05/24 08:30:13;;;;;;;7.90;5.20;;;12.00;99.90;;;;;;5115337;28;20172;-68
2022/05/24 08:32:40;;;;;;;6.90;4.87;;;12.20;99.90;;;;;;5115393;28;20204;-69
2022/05/24 08:35:07;;;;;;;5.37;4.70;;;12.40;99.90;;;;;;5115178;28;20185;-69
2022/05/24 08:37:33;;;;;;;5.57;4.95;;;12.60;99.90;;;;;;5115168;28;20172;-69
2022/05/24 08:39:59;;;;;;;8.23;4.53;;;12.60;99.90;;;;;;5115448;28;20221;-69
2022/05/24 08:43:04;;;;;;;7.47;4.30;;;12.70;99.90;;;;;;5096993;28;20182;-69
2022/05/24 08:48:51;;;;;;;6.60;3.80;;;12.90;99.90;;;;;;5114919;28;20199;-69
2022/05/24 08:51:33;;;;;;;6.80;3.70;;;13.10;99.90;;;;;;5111180;28;20188;-69
2022/05/24 08:54:05;;;;;;;4.50;3.53;;;13.30;99.90;;;;;;5115068;28;20614;-69
2022/05/24 08:56:53;;;;;;;5.93;3.53;;;13.50;99.90;;;;;;5114864;28;20161;-69
2022/05/24 08:59:42;;;;;;;5.17;3.57;;;13.70;99.90;;;;;;5114231;28;20207;-69
2022/05/24 09:02:08;;;;;;;4.57;3.40;;;13.70;99.90;;;;;;5096611;28;20657;-69
2022/05/24 09:04:34;;;;;;;5.88;3.58;;;13.70;99.90;;;;;;5115260;28;20225;-69
2022/05/24 09:07:18;;;;;;;6.18;3.65;;;13.80;99.90;;;;;;5114640;28;20180;-69
2022/05/24 09:09:44;;;;;;;5.50;3.90;;;13.90;99.90;;;;;;5115192;28;20200;-69
2022/05/24 09:12:21;;;;;;;4.53;4.10;;;13.80;99.90;;;;;;5096377;28;20219;-69
2022/05/24 09:15:21;;;;;;;5.00;4.03;;;13.70;99.90;;;;;;5114402;28;20184;-69
2022/05/24 09:17:53;;;;;;;7.88;4.18;;;13.70;99.90;;;;;;5114370;28;20279;-69
2022/05/24 09:20:24;;;;;;;8.43;4.10;;;14.00;99.90;;;;;;5114470;28;20589;-69
2022/05/24 09:22:53;;;;;;;8.13;3.92;;;14.30;99.90;;;;;;5114559;28;20656;-69
2022/05/24 09:25:19;;;;;;;4.25;3.85;;;14.50;99.90;;;;;;5114792;28;20229;-69
2022/05/24 09:27:53;;;;;;;5.97;4.25;;;14.50;99.90;;;;;;5114507;28;20184;-69
2022/05/24 09:30:31;;;;;;;5.90;4.38;;;14.30;99.90;;;;;;5096132;28;20195;-70
2022/05/24 09:33:24;;;;;;;4.45;4.00;;;14.20;99.90;;;;;;5096584;28;20196;-69
2022/05/24 09:35:57;;;;;;;7.53;3.95;;;14.20;99.90;;;;;;5114863;28;20175;-69
2022/05/24 09:38:35;;;;;;;7.88;3.95;;;14.50;99.90;;;;;;5114709;28;20200;-70
2022/05/24 09:41:09;;;;;;;5.90;3.90;;;14.70;99.90;;;;;;5114290;28;20178;-70
2022/05/24 09:43:39;;;;;;;4.00;3.60;;;15.10;99.90;;;;;;5114616;28;20167;-70
2022/05/24 09:46:22;;;;;;;3.95;3.55;;;15.20;99.90;;;;;;5113501;28;20157;-70
2022/05/24 09:49:04;;;;;;;4.03;3.33;;;15.10;99.90;;;;;;5114596;28;20527;-70
2022/05/24 09:51:39;;;;;;;4.50;3.50;;;15.00;99.90;;;;;;5114450;28;20191;-70
2022/05/24 09:54:20;;;;;;;12.50;3.40;;;14.80;99.90;;;;;;5114369;28;20153;-69
2022/05/24 09:57:01;;;;;;;5.70;3.33;;;14.60;99.90;;;;;;5114227;28;20527;-70
2022/05/24 09:59:28;;;;;;;5.63;3.17;;;14.50;99.90;;;;;;5113935;28;20278;-70
2022/05/24 10:01:54;;;;;;;6.80;3.42;;;14.60;99.90;;;;;;5095679;28;20180;-70
2022/05/24 10:04:23;;;;;;;4.05;3.20;;;14.80;99.90;;;;;;5114397;28;20203;-70
2022/05/24 10:07:15;;;;;;;5.88;3.17;;;14.90;99.90;;;;;;5114178;28;20172;-70
2022/05/24 10:09:46;;;;;;;5.93;3.00;;;14.80;99.90;;;;;;5114209;28;20612;-70
2022/05/24 10:12:25;;;;;;;6.35;3.38;;;14.80;99.90;;;;;;5114099;28;20610;-70
2022/05/24 10:15:35;;;;;;;3.90;3.20;;;14.60;99.90;;;;;;5095649;28;20201;-70
2022/05/24 10:18:08;;;;;;;4.47;3.33;;;14.50;99.90;;;;;;5108694;28;20352;-70
2022/05/24 10:20:42;;;;;;;3.60;3.30;;;14.40;99.90;;;;;;5114196;28;20153;-70
2022/05/24 10:23:19;;;;;;;6.00;3.35;;;14.20;99.90;;;;;;5113901;28;20237;-70
2022/05/24 10:25:47;;;;;;;5.57;3.40;;;14.30;99.90;;;;;;5114352;28;20163;-70
2022/05/24 10:28:31;;;;;;;5.43;3.33;;;14.40;99.90;;;;;;5095609;28;20201;-70
2022/05/24 10:31:08;;;;;;;4.53;3.10;;;14.70;99.90;;;;;;5113760;28;20185;-70
2022/05/24 10:40:05;;;;;;;3.10;2.80;;;15.10;99.90;;;;;;5113619;28;20215;-70
2022/05/24 10:42:33;;;;;;;5.60;2.97;;;15.30;99.90;;;;;;4995113;28;20188;-70
2022/05/24 10:45:07;;;;;;;5.63;2.97;;;15.50;99.90;;;;;;5094117;28;20188;-70
2022/05/24 10:47:41;;;;;;;4.53;2.95;;;15.50;99.90;;;;;;5113253;28;20173;-70
2022/05/24 10:50:13;;;;;;;5.93;3.00;;;15.30;99.90;;;;;;5113648;28;20173;-70
2022/05/24 10:52:50;;;;;;;3.08;2.72;;;15.30;99.90;;;;;;5113651;28;20712;-70
2022/05/24 10:55:20;;;;;;;4.65;2.90;;;15.40;99.90;;;;;;5113731;28;20160;-70
2022/05/24 10:58:00;;;;;;;3.50;2.63;;;15.40;99.90;;;;;;5115374;28;20176;-69
2022/05/24 11:00:36;;;;;;;4.85;2.83;;;15.40;99.90;;;;;;5117022;28;20159;-70
2022/05/24 11:03:24;;;;;;;3.72;2.83;;;15.40;99.90;;;;;;5117015;28;20188;-70
2022/05/24 11:05:54;;;;;;;4.78;2.97;;;15.30;99.90;;;;;;5098670;28;20234;-70
2022/05/24 11:08:29;;;;;;;3.92;3.17;;;15.20;99.90;;;;;;5098483;28;20300;-70
2022/05/24 11:10:58;;;;;;;4.32;3.28;;;15.50;99.90;;;;;;5116889;28;20651;-70
2022/05/24 11:13:46;;;;;;;4.70;3.10;;;15.90;99.90;;;;;;5116624;28;20644;-70
2022/05/24 11:16:20;;;;;;;7.22;3.17;;;16.20;99.90;;;;;;5116747;28;20169;-70
2022/05/24 11:18:46;;;;;;;4.78;3.03;;;16.30;99.90;;;;;;5117125;28;20196;-70
2022/05/24 11:21:15;;;;;;;5.28;2.92;;;16.50;99.90;;;;;;5116612;28;20179;-70
2022/05/24 11:24:02;;;;;;;4.32;2.78;;;16.70;99.90;;;;;;5098427;28;20282;-70
2022/05/24 11:26:39;;;;;;;3.05;2.72;;;16.80;99.90;;;;;;5098544;28;20188;-70
2022/05/24 11:29:39;;;;;;;4.88;2.70;;;16.90;99.90;;;;;;5116532;28;20245;-70
2022/05/24 11:32:08;;;;;;;2.97;2.50;;;16.80;99.90;;;;;;5076793;28;20227;-70
2022/05/24 11:34:40;;;;;;;4.93;2.92;;;16.90;99.90;;;;;;5116703;28;20251;-70
2022/05/24 11:37:25;;;;;;;5.05;2.90;;;16.90;99.90;;;;;;5098211;28;20613;-70
2022/05/24 11:39:52;;;;;;;3.03;2.60;;;16.60;99.90;;;;;;5116393;28;20191;-70
2022/05/24 11:42:45;;;;;;;3.45;2.30;;;16.90;99.90;;;;;;5098024;28;20176;-71
2022/05/24 11:45:29;;;;;;;2.67;2.20;;;17.30;99.90;;;;;;5116563;28;20522;-70
2022/05/24 11:47:57;;;;;;;3.13;2.03;;;17.70;99.90;;;;;;5115946;28;20652;-70
2022/05/24 11:50:35;;;;;;;2.30;2.08;;;17.90;99.90;;;;;;5098375;28;20238;-70
2022/05/24 11:53:07;;;;;;;5.75;2.45;;;18.20;99.90;;;;;;5116078;28;20562;-70
2022/05/24 11:55:39;;;;;;;4.22;2.47;;;17.90;99.90;;;;;;5116424;28;20545;-70
2022/05/24 11:58:32;;;;;;;6.85;2.63;;;17.30;99.90;;;;;;5098114;28;20195;-70
2022/05/24 12:01:19;;;;;;;3.20;2.63;;;16.90;99.90;;;;;;5103177;28;20187;-70
2022/05/24 12:10:05;;;;;;;2.17;2.00;;;16.40;99.90;;;;;;5115493;28;20695;-70
2022/05/24 12:13:02;;;;;;;4.22;2.20;;;16.50;99.90;;;;;;5116329;28;20204;-71
2022/05/24 12:15:31;;;;;;;4.07;2.47;;;16.70;99.90;;;;;;5057157;28;20201;-70
2022/05/24 12:18:00;;;;;;;2.55;2.15;;;16.80;99.90;;;;;;5117791;28;20714;-71
2022/05/24 12:20:35;;;;;;;3.40;2.42;;;16.80;99.90;;;;;;5115930;28;20177;-70
2022/05/24 12:23:06;;;;;;;4.50;2.25;;;16.90;99.90;;;;;;5097617;28;20187;-69
2022/05/24 12:25:55;;;;;;;2.80;2.10;;;16.80;99.90;;;;;;5097303;28;20177;-70
2022/05/24 12:28:29;;;;;;;5.15;2.20;;;17.20;99.90;;;;;;5097178;28;20291;-70
2022/05/24 12:30:57;;;;;;;2.92;2.05;;;17.30;99.90;;;;;;5115244;28;20179;-71
2022/05/24 12:33:33;;;;;;;3.33;2.28;;;17.40;99.90;;;;;;5115418;28;20198;-71
2022/05/24 12:36:07;;;;;;;4.18;2.00;;;17.90;99.90;;;;;;5115390;28;20164;-70
2022/05/24 12:38:37;;;;;;;2.50;1.95;;;18.00;99.90;;;;;;5096912;28;20245;-70
2022/05/24 12:41:14;;;;;;;2.58;2.08;;;18.00;99.90;;;;;;5115482;28;20188;-69
2022/05/24 12:43:52;;;;;;;2.40;1.90;;;18.10;99.90;;;;;;5115378;28;20160;-70
2022/05/24 12:46:18;;;;;;;11.27;1.92;;;18.30;99.90;;;;;;5115763;28;20288;-70
2022/05/24 12:48:44;;;;;;;2.60;1.80;;;18.30;99.90;;;;;;5115281;28;20720;-71
2022/05/24 12:51:11;;;;;;;5.40;2.20;;;18.30;99.90;;;;;;5115769;28;20581;-70
2022/05/24 12:53:38;;;;;;;3.15;1.92;;;18.20;99.90;;;;;;5115603;28;20196;-70
2022/05/24 12:56:08;;;;;;;2.08;1.80;;;18.50;99.90;;;;;;5115764;28;20169;-71
2022/05/24 12:58:41;;;;;;;3.53;2.13;;;19.00;99.90;;;;;;5097563;28;20756;-71
2022/05/24 13:01:26;;;;;;;7.10;2.00;;;19.20;99.90;;;;;;5116737;28;20617;-71
2022/05/24 13:04:00;;;;;;;2.45;1.80;;;18.80;99.90;;;;;;5116157;28;20617;-71
2022/05/24 13:06:31;;;;;;;3.78;2.15;;;18.40;99.90;;;;;;5116349;28;20244;-71
2022/05/24 13:09:18;;;;;;;4.13;2.10;;;18.10;99.90;;;;;;5096843;28;20208;-70
2022/05/24 13:11:48;;;;;;;3.58;2.17;;;17.70;99.90;;;;;;5115807;28;20180;-70
2022/05/24 13:14:38;;;;;;;4.82;2.08;;;17.60;99.90;;;;;;5116849;28;20267;-70
2022/05/24 13:17:07;;;;;;;3.10;2.15;;;17.40;99.90;;;;;;5096959;28;20192;-70
2022/05/24 13:19:46;;;;;;;5.07;2.50;;;17.50;99.90;;;;;;5116069;28;20196;-70
2022/05/24 13:22:13;;;;;;;3.03;1.90;;;18.10;99.90;;;;;;5117041;28;20632;-70
2022/05/24 13:24:56;;;;;;;3.00;2.17;;;18.20;99.90;;;;;;5116715;28;20176;-70
2022/05/24 13:27:22;;;;;;;3.72;2.25;;;17.90;99.90;;;;;;5116636;28;20172;-70
2022/05/24 13:35:30;;;;;;;3.78;1.92;;;18.80;99.90;;;;;;5115355;28;20212;-70
2022/05/24 13:37:58;;;;;;;3.67;2.10;;;18.80;99.90;;;;;;5114899;28;20196;-71
2022/05/24 13:40:41;;;;;;;2.17;1.80;;;18.50;99.90;;;;;;5096458;28;20177;-71
2022/05/24 13:43:08;;;;;;;2.10;1.90;;;18.20;99.90;;;;;;5115177;28;20159;-71
2022/05/24 13:45:35;;;;;;;3.30;2.10;;;17.80;99.90;;;;;;5116344;28;20168;-71
2022/05/24 13:48:21;;;;;;;5.72;2.30;;;17.60;99.90;;;;;;5116435;28;20196;-69